sensor_id;sensor_type;location;lat;lon;timestamp;P1;durP1;ratioP1;P2;durP2;ratioP2
60239;SDS011;46102;39.012;-7.064;2023-04-29T00:00:05;3.47;;;1.02;;
60239;SDS011;46102;39.012;-7.064;2023-04-29T00:02:13;3.53;;;1.10;;
60239;SDS011;46102;39.012;-7.064;2023-04-29T00:04:14;1.85;;;1.05;;
60239;SDS011;46102;39.012;-7.064;2023-04-29T00:06:15;2.05;;;1.08;;
60239;SDS011;46102;39.012;-7.064;2023-04-29T00:08:16;4.00;;;1.15;;
60239;SDS011;46102;39.012;-7.064;2023-04-29T00:10:17;3.72;;;1.20;;
60239;SDS011;46102;39.012;-7.064;2023-04-29T00:12:18;1.40;;;1.00;;
60239;SDS011;46102;39.012;-7.064;2023-04-29T00:14:19;5.85;;;1.33;;
60239;SDS011;46102;39.012;-7.064;2023-04-29T00:16:20;2.20;;;1.23;;
60239;SDS011;46102;39.012;-7.064;2023-04-29T00:18:20;2.78;;;0.95;;
60239;SDS011;46102;39.012;-7.064;2023-04-29T00:20:21;1.88;;;0.80;;
60239;SDS011;46102;39.012;-7.064;2023-04-29T00:22:22;0.90;;;0.80;;
60239;SDS011;46102;39.012;-7.064;2023-04-29T00:24:23;1.10;;;1.00;;
60239;SDS011;46102;39.012;-7.064;2023-04-29T00:26:24;0.80;;;0.75;;
60239;SDS011;46102;39.012;-7.064;2023-04-29T00:28:25;2.15;;;0.98;;
60239;SDS011;46102;39.012;-7.064;2023-04-29T00:30:27;0.57;;;0.57;;
60239;SDS011;46102;39.012;-7.064;2023-04-29T00:32:28;3.38;;;0.88;;
60239;SDS011;46102;39.012;-7.064;2023-04-29T00:34:29;1.85;;;0.73;;
60239;SDS011;46102;39.012;-7.064;2023-04-29T00:36:30;1.88;;;0.70;;
60239;SDS011;46102;39.012;-7.064;2023-04-29T00:38:31;1.60;;;0.80;;
60239;SDS011;46102;39.012;-7.064;2023-04-29T00:40:32;4.20;;;0.60;;
60239;SDS011;46102;39.012;-7.064;2023-04-29T00:42:33;3.05;;;0.85;;
60239;SDS011;46102;39.012;-7.064;2023-04-29T00:44:34;1.73;;;0.88;;
60239;SDS011;46102;39.012;-7.064;2023-04-29T00:46:35;0.82;;;0.65;;
60239;SDS011;46102;39.012;-7.064;2023-04-29T00:48:36;1.63;;;0.70;;
60239;SDS011;46102;39.012;-7.064;2023-04-29T00:50:37;0.63;;;0.63;;
60239;SDS011;46102;39.012;-7.064;2023-04-29T00:52:38;1.33;;;0.70;;
60239;SDS011;46102;39.012;-7.064;2023-04-29T00:54:39;1.52;;;0.50;;
60239;SDS011;46102;39.012;-7.064;2023-04-29T00:56:40;2.35;;;0.88;;
60239;SDS011;46102;39.012;-7.064;2023-04-29T01:00:49;2.15;;;0.80;;
60239;SDS011;46102;39.012;-7.064;2023-04-29T01:02:50;1.75;;;0.82;;
60239;SDS011;46102;39.012;-7.064;2023-04-29T01:04:53;1.75;;;1.13;;
60239;SDS011;46102;39.012;-7.064;2023-04-29T01:11:22;1.45;;;1.17;;
60239;SDS011;46102;39.012;-7.064;2023-04-29T01:13:34;1.38;;;1.27;;
60239;SDS011;46102;39.012;-7.064;2023-04-29T01:16:00;1.60;;;1.33;;
60239;SDS011;46102;39.012;-7.064;2023-04-29T01:18:14;2.13;;;1.70;;
60239;SDS011;46102;39.012;-7.064;2023-04-29T01:20:20;3.25;;;1.85;;
60239;SDS011;46102;39.012;-7.064;2023-04-29T01:22:23;4.13;;;2.25;;
60239;SDS011;46102;39.012;-7.064;2023-04-29T01:24:24;2.72;;;2.53;;
60239;SDS011;46102;39.012;-7.064;2023-04-29T01:26:25;6.20;;;2.63;;
60239;SDS011;46102;39.012;-7.064;2023-04-29T01:28:54;3.40;;;2.60;;
60239;SDS011;46102;39.012;-7.064;2023-04-29T01:31:06;5.35;;;3.63;;
60239;SDS011;46102;39.012;-7.064;2023-04-29T01:33:19;5.00;;;3.50;;
60239;SDS011;46102;39.012;-7.064;2023-04-29T01:35:33;4.45;;;3.75;;
60239;SDS011;46102;39.012;-7.064;2023-04-29T01:37:40;5.15;;;4.15;;
60239;SDS011;46102;39.012;-7.064;2023-04-29T01:42:09;4.65;;;3.72;;
60239;SDS011;46102;39.012;-7.064;2023-04-29T01:44:32;5.57;;;4.13;;
60239;SDS011;46102;39.012;-7.064;2023-04-29T01:46:34;5.05;;;4.47;;
60239;SDS011;46102;39.012;-7.064;2023-04-29T01:48:36;6.28;;;4.30;;
60239;SDS011;46102;39.012;-7.064;2023-04-29T01:50:37;5.82;;;4.43;;
60239;SDS011;46102;39.012;-7.064;2023-04-29T01:52:45;4.15;;;3.75;;
60239;SDS011;46102;39.012;-7.064;2023-04-29T01:54:45;4.78;;;4.38;;
60239;SDS011;46102;39.012;-7.064;2023-04-29T01:56:47;6.43;;;3.92;;
60239;SDS011;46102;39.012;-7.064;2023-04-29T01:58:57;6.22;;;3.47;;
60239;SDS011;46102;39.012;-7.064;2023-04-29T02:01:28;3.55;;;3.15;;
60239;SDS011;46102;39.012;-7.064;2023-04-29T02:03:29;4.60;;;3.33;;
60239;SDS011;46102;39.012;-7.064;2023-04-29T02:05:31;6.90;;;3.05;;
60239;SDS011;46102;39.012;-7.064;2023-04-29T02:07:35;3.10;;;2.78;;
60239;SDS011;46102;39.012;-7.064;2023-04-29T02:09:35;3.67;;;3.05;;
60239;SDS011;46102;39.012;-7.064;2023-04-29T02:11:42;3.80;;;2.70;;
60239;SDS011;46102;39.012;-7.064;2023-04-29T02:13:43;4.68;;;2.75;;
60239;SDS011;46102;39.012;-7.064;2023-04-29T02:15:45;3.60;;;3.10;;
60239;SDS011;46102;39.012;-7.064;2023-04-29T02:17:47;3.38;;;2.53;;
60239;SDS011;46102;39.012;-7.064;2023-04-29T02:19:47;2.92;;;2.53;;
60239;SDS011;46102;39.012;-7.064;2023-04-29T02:21:48;4.63;;;3.10;;
60239;SDS011;46102;39.012;-7.064;2023-04-29T02:23:51;5.80;;;2.72;;
60239;SDS011;46102;39.012;-7.064;2023-04-29T02:25:56;2.70;;;2.50;;
60239;SDS011;46102;39.012;-7.064;2023-04-29T02:27:58;4.55;;;3.15;;
60239;SDS011;46102;39.012;-7.064;2023-04-29T02:29:58;2.58;;;2.30;;
60239;SDS011;46102;39.012;-7.064;2023-04-29T02:31:59;2.97;;;2.20;;
60239;SDS011;46102;39.012;-7.064;2023-04-29T02:34:00;3.78;;;2.33;;
60239;SDS011;46102;39.012;-7.064;2023-04-29T02:36:01;2.60;;;2.40;;
60239;SDS011;46102;39.012;-7.064;2023-04-29T02:38:02;5.80;;;1.85;;
60239;SDS011;46102;39.012;-7.064;2023-04-29T02:40:03;2.38;;;2.17;;
60239;SDS011;46102;39.012;-7.064;2023-04-29T02:42:05;2.30;;;1.85;;
60239;SDS011;46102;39.012;-7.064;2023-04-29T02:44:06;2.40;;;1.90;;
60239;SDS011;46102;39.012;-7.064;2023-04-29T02:46:07;2.10;;;1.83;;
60239;SDS011;46102;39.012;-7.064;2023-04-29T02:48:07;1.58;;;1.40;;
60239;SDS011;46102;39.012;-7.064;2023-04-29T02:50:08;2.25;;;1.73;;
60239;SDS011;46102;39.012;-7.064;2023-04-29T02:52:10;2.47;;;1.10;;
60239;SDS011;46102;39.012;-7.064;2023-04-29T02:54:12;0.80;;;0.80;;
60239;SDS011;46102;39.012;-7.064;2023-04-29T02:56:13;6.22;;;1.15;;
60239;SDS011;46102;39.012;-7.064;2023-04-29T02:58:15;1.10;;;1.00;;
60239;SDS011;46102;39.012;-7.064;2023-04-29T03:00:16;1.73;;;0.85;;
60239;SDS011;46102;39.012;-7.064;2023-04-29T03:02:17;1.15;;;0.80;;
60239;SDS011;46102;39.012;-7.064;2023-04-29T03:04:22;3.08;;;1.17;;
60239;SDS011;46102;39.012;-7.064;2023-04-29T03:06:23;1.50;;;0.88;;
60239;SDS011;46102;39.012;-7.064;2023-04-29T03:08:24;1.13;;;0.60;;
60239;SDS011;46102;39.012;-7.064;2023-04-29T03:10:26;1.85;;;0.77;;
60239;SDS011;46102;39.012;-7.064;2023-04-29T03:12:27;1.48;;;0.68;;
60239;SDS011;46102;39.012;-7.064;2023-04-29T03:14:28;2.30;;;0.43;;
60239;SDS011;46102;39.012;-7.064;2023-04-29T03:16:29;1.65;;;0.88;;
60239;SDS011;46102;39.012;-7.064;2023-04-29T03:18:30;0.43;;;0.43;;
60239;SDS011;46102;39.012;-7.064;2023-04-29T03:20:31;0.50;;;0.50;;
60239;SDS011;46102;39.012;-7.064;2023-04-29T03:22:35;0.90;;;0.73;;
60239;SDS011;46102;39.012;-7.064;2023-04-29T03:24:36;2.00;;;0.63;;
60239;SDS011;46102;39.012;-7.064;2023-04-29T03:26:37;1.60;;;0.63;;
60239;SDS011;46102;39.012;-7.064;2023-04-29T03:28:38;0.63;;;0.47;;
60239;SDS011;46102;39.012;-7.064;2023-04-29T03:30:39;0.98;;;0.50;;
60239;SDS011;46102;39.012;-7.064;2023-04-29T03:32:40;1.08;;;0.65;;
60239;SDS011;46102;39.012;-7.064;2023-04-29T03:34:41;3.10;;;0.80;;
60239;SDS011;46102;39.012;-7.064;2023-04-29T03:36:55;0.70;;;0.70;;
60239;SDS011;46102;39.012;-7.064;2023-04-29T03:38:57;4.15;;;0.75;;
60239;SDS011;46102;39.012;-7.064;2023-04-29T03:40:57;0.60;;;0.60;;
60239;SDS011;46102;39.012;-7.064;2023-04-29T03:42:58;1.60;;;0.60;;
60239;SDS011;46102;39.012;-7.064;2023-04-29T03:45:00;2.72;;;0.90;;
60239;SDS011;46102;39.012;-7.064;2023-04-29T03:47:01;1.20;;;1.10;;
60239;SDS011;46102;39.012;-7.064;2023-04-29T03:49:02;3.42;;;1.25;;
60239;SDS011;46102;39.012;-7.064;2023-04-29T03:51:02;1.98;;;1.10;;
60239;SDS011;46102;39.012;-7.064;2023-04-29T03:53:04;1.30;;;1.20;;
60239;SDS011;46102;39.012;-7.064;2023-04-29T03:55:05;1.65;;;1.48;;
60239;SDS011;46102;39.012;-7.064;2023-04-29T03:57:06;4.18;;;1.92;;
60239;SDS011;46102;39.012;-7.064;2023-04-29T03:59:07;1.80;;;1.70;;
60239;SDS011;46102;39.012;-7.064;2023-04-29T04:01:10;2.20;;;2.00;;
60239;SDS011;46102;39.012;-7.064;2023-04-29T04:03:17;6.13;;;2.13;;
60239;SDS011;46102;39.012;-7.064;2023-04-29T04:05:17;4.22;;;2.55;;
60239;SDS011;46102;39.012;-7.064;2023-04-29T04:07:24;2.50;;;2.30;;
60239;SDS011;46102;39.012;-7.064;2023-04-29T04:10:03;2.40;;;2.17;;
60239;SDS011;46102;39.012;-7.064;2023-04-29T04:12:05;4.20;;;1.98;;
60239;SDS011;46102;39.012;-7.064;2023-04-29T04:14:07;3.97;;;2.67;;
60239;SDS011;46102;39.012;-7.064;2023-04-29T04:16:09;2.90;;;2.45;;
60239;SDS011;46102;39.012;-7.064;2023-04-29T04:18:10;3.63;;;2.70;;
60239;SDS011;46102;39.012;-7.064;2023-04-29T04:20:13;2.78;;;2.58;;
60239;SDS011;46102;39.012;-7.064;2023-04-29T04:22:13;2.33;;;2.13;;
60239;SDS011;46102;39.012;-7.064;2023-04-29T04:24:24;5.03;;;2.30;;
60239;SDS011;46102;39.012;-7.064;2023-04-29T04:26:25;2.20;;;2.00;;
60239;SDS011;46102;39.012;-7.064;2023-04-29T04:28:35;3.55;;;2.75;;
60239;SDS011;46102;39.012;-7.064;2023-04-29T04:30:44;6.43;;;3.95;;
60239;SDS011;46102;39.012;-7.064;2023-04-29T04:32:45;3.65;;;2.72;;
60239;SDS011;46102;39.012;-7.064;2023-04-29T04:34:46;3.30;;;3.00;;
60239;SDS011;46102;39.012;-7.064;2023-04-29T04:36:48;3.13;;;2.75;;
60239;SDS011;46102;39.012;-7.064;2023-04-29T04:38:49;3.55;;;3.25;;
60239;SDS011;46102;39.012;-7.064;2023-04-29T04:40:50;2.88;;;2.65;;
60239;SDS011;46102;39.012;-7.064;2023-04-29T04:42:59;4.38;;;3.10;;
60239;SDS011;46102;39.012;-7.064;2023-04-29T04:45:00;4.80;;;2.70;;
60239;SDS011;46102;39.012;-7.064;2023-04-29T04:47:17;3.55;;;2.65;;
60239;SDS011;46102;39.012;-7.064;2023-04-29T04:49:29;4.30;;;3.90;;
60239;SDS011;46102;39.012;-7.064;2023-04-29T04:51:30;6.32;;;3.40;;
60239;SDS011;46102;39.012;-7.064;2023-04-29T04:53:31;6.57;;;2.88;;
60239;SDS011;46102;39.012;-7.064;2023-04-29T04:55:37;3.35;;;3.05;;
60239;SDS011;46102;39.012;-7.064;2023-04-29T04:57:39;3.25;;;2.50;;
60239;SDS011;46102;39.012;-7.064;2023-04-29T04:59:39;4.68;;;2.63;;
60239;SDS011;46102;39.012;-7.064;2023-04-29T05:01:40;2.60;;;2.28;;
60239;SDS011;46102;39.012;-7.064;2023-04-29T05:03:41;2.15;;;1.73;;
60239;SDS011;46102;39.012;-7.064;2023-04-29T05:05:42;4.78;;;1.67;;
60239;SDS011;46102;39.012;-7.064;2023-04-29T05:07:43;1.27;;;1.17;;
60239;SDS011;46102;39.012;-7.064;2023-04-29T05:09:45;2.58;;;1.25;;
60239;SDS011;46102;39.012;-7.064;2023-04-29T05:11:45;2.55;;;1.40;;
60239;SDS011;46102;39.012;-7.064;2023-04-29T05:13:49;1.27;;;1.00;;
60239;SDS011;46102;39.012;-7.064;2023-04-29T05:15:51;1.13;;;0.90;;
60239;SDS011;46102;39.012;-7.064;2023-04-29T05:17:56;0.93;;;0.93;;
60239;SDS011;46102;39.012;-7.064;2023-04-29T05:19:58;1.35;;;1.25;;
60239;SDS011;46102;39.012;-7.064;2023-04-29T05:21:59;1.05;;;0.90;;
60239;SDS011;46102;39.012;-7.064;2023-04-29T05:24:00;0.85;;;0.82;;
60239;SDS011;46102;39.012;-7.064;2023-04-29T05:26:00;1.20;;;1.10;;
60239;SDS011;46102;39.012;-7.064;2023-04-29T05:28:01;1.77;;;1.40;;
60239;SDS011;46102;39.012;-7.064;2023-04-29T05:30:06;1.33;;;1.10;;
60239;SDS011;46102;39.012;-7.064;2023-04-29T05:32:07;1.40;;;1.08;;
60239;SDS011;46102;39.012;-7.064;2023-04-29T05:34:09;1.30;;;1.20;;
60239;SDS011;46102;39.012;-7.064;2023-04-29T05:36:09;2.83;;;1.20;;
60239;SDS011;46102;39.012;-7.064;2023-04-29T05:38:11;0.85;;;0.85;;
60239;SDS011;46102;39.012;-7.064;2023-04-29T05:40:14;0.95;;;0.93;;
60239;SDS011;46102;39.012;-7.064;2023-04-29T05:42:16;1.00;;;1.00;;
60239;SDS011;46102;39.012;-7.064;2023-04-29T05:44:21;3.78;;;1.25;;
60239;SDS011;46102;39.012;-7.064;2023-04-29T05:46:22;3.53;;;1.17;;
60239;SDS011;46102;39.012;-7.064;2023-04-29T05:48:23;1.30;;;1.00;;
60239;SDS011;46102;39.012;-7.064;2023-04-29T05:50:24;2.95;;;1.10;;
60239;SDS011;46102;39.012;-7.064;2023-04-29T05:52:25;1.05;;;0.88;;
60239;SDS011;46102;39.012;-7.064;2023-04-29T05:54:26;1.30;;;1.00;;
60239;SDS011;46102;39.012;-7.064;2023-04-29T05:56:27;3.33;;;1.20;;
60239;SDS011;46102;39.012;-7.064;2023-04-29T05:58:29;2.70;;;1.08;;
60239;SDS011;46102;39.012;-7.064;2023-04-29T06:00:30;3.15;;;1.48;;
60239;SDS011;46102;39.012;-7.064;2023-04-29T06:02:39;1.40;;;1.00;;
60239;SDS011;46102;39.012;-7.064;2023-04-29T06:04:44;2.00;;;1.90;;
60239;SDS011;46102;39.012;-7.064;2023-04-29T06:07:04;0.80;;;0.80;;
60239;SDS011;46102;39.012;-7.064;2023-04-29T06:09:25;1.08;;;0.90;;
60239;SDS011;46102;39.012;-7.064;2023-04-29T06:11:26;0.90;;;0.90;;
60239;SDS011;46102;39.012;-7.064;2023-04-29T06:13:27;1.13;;;1.00;;
60239;SDS011;46102;39.012;-7.064;2023-04-29T06:15:29;1.05;;;0.90;;
60239;SDS011;46102;39.012;-7.064;2023-04-29T06:17:30;2.15;;;0.90;;
60239;SDS011;46102;39.012;-7.064;2023-04-29T06:19:31;3.00;;;0.85;;
60239;SDS011;46102;39.012;-7.064;2023-04-29T06:21:33;0.80;;;0.80;;
60239;SDS011;46102;39.012;-7.064;2023-04-29T06:23:33;1.02;;;0.77;;
60239;SDS011;46102;39.012;-7.064;2023-04-29T06:25:40;1.80;;;1.02;;
60239;SDS011;46102;39.012;-7.064;2023-04-29T06:27:42;1.75;;;1.00;;
60239;SDS011;46102;39.012;-7.064;2023-04-29T06:29:43;1.45;;;0.82;;
60239;SDS011;46102;39.012;-7.064;2023-04-29T06:31:44;1.92;;;0.70;;
60239;SDS011;46102;39.012;-7.064;2023-04-29T06:33:45;1.25;;;0.93;;
60239;SDS011;46102;39.012;-7.064;2023-04-29T06:35:46;1.92;;;1.40;;
60239;SDS011;46102;39.012;-7.064;2023-04-29T06:38:25;1.00;;;0.98;;
60239;SDS011;46102;39.012;-7.064;2023-04-29T06:40:34;1.40;;;1.00;;
60239;SDS011;46102;39.012;-7.064;2023-04-29T06:42:50;1.65;;;0.60;;
60239;SDS011;46102;39.012;-7.064;2023-04-29T06:45:09;1.45;;;1.17;;
60239;SDS011;46102;39.012;-7.064;2023-04-29T06:47:13;1.55;;;0.80;;
60239;SDS011;46102;39.012;-7.064;2023-04-29T06:49:22;1.23;;;0.70;;
60239;SDS011;46102;39.012;-7.064;2023-04-29T06:51:22;0.98;;;0.63;;
60239;SDS011;46102;39.012;-7.064;2023-04-29T06:53:24;2.45;;;0.70;;
60239;SDS011;46102;39.012;-7.064;2023-04-29T06:55:25;2.97;;;1.10;;
60239;SDS011;46102;39.012;-7.064;2023-04-29T06:57:26;2.22;;;2.05;;
60239;SDS011;46102;39.012;-7.064;2023-04-29T06:59:26;1.08;;;1.00;;
60239;SDS011;46102;39.012;-7.064;2023-04-29T07:01:27;2.70;;;0.90;;
60239;SDS011;46102;39.012;-7.064;2023-04-29T07:03:28;0.98;;;0.88;;
60239;SDS011;46102;39.012;-7.064;2023-04-29T07:05:30;0.95;;;0.70;;
60239;SDS011;46102;39.012;-7.064;2023-04-29T07:07:31;0.98;;;0.75;;
60239;SDS011;46102;39.012;-7.064;2023-04-29T07:09:32;1.50;;;0.90;;
60239;SDS011;46102;39.012;-7.064;2023-04-29T07:11:33;1.10;;;0.82;;
60239;SDS011;46102;39.012;-7.064;2023-04-29T07:13:34;2.97;;;0.98;;
60239;SDS011;46102;39.012;-7.064;2023-04-29T07:15:35;0.70;;;0.70;;
60239;SDS011;46102;39.012;-7.064;2023-04-29T07:17:36;1.85;;;0.98;;
60239;SDS011;46102;39.012;-7.064;2023-04-29T07:19:37;1.20;;;1.00;;
60239;SDS011;46102;39.012;-7.064;2023-04-29T07:21:38;2.55;;;1.00;;
60239;SDS011;46102;39.012;-7.064;2023-04-29T07:23:39;2.53;;;0.90;;
60239;SDS011;46102;39.012;-7.064;2023-04-29T07:25:40;0.63;;;0.63;;
60239;SDS011;46102;39.012;-7.064;2023-04-29T07:27:41;1.27;;;1.00;;
60239;SDS011;46102;39.012;-7.064;2023-04-29T07:29:42;1.30;;;1.15;;
60239;SDS011;46102;39.012;-7.064;2023-04-29T07:31:43;1.70;;;1.00;;
60239;SDS011;46102;39.012;-7.064;2023-04-29T07:33:44;0.68;;;0.68;;
60239;SDS011;46102;39.012;-7.064;2023-04-29T07:35:46;0.80;;;0.80;;
60239;SDS011;46102;39.012;-7.064;2023-04-29T07:37:48;1.83;;;1.05;;
60239;SDS011;46102;39.012;-7.064;2023-04-29T07:39:49;1.63;;;0.77;;
60239;SDS011;46102;39.012;-7.064;2023-04-29T07:41:50;2.83;;;1.20;;
60239;SDS011;46102;39.012;-7.064;2023-04-29T07:43:51;1.60;;;1.13;;
60239;SDS011;46102;39.012;-7.064;2023-04-29T07:45:52;2.92;;;1.10;;
60239;SDS011;46102;39.012;-7.064;2023-04-29T07:47:53;2.67;;;1.40;;
60239;SDS011;46102;39.012;-7.064;2023-04-29T07:49:54;1.48;;;0.98;;
60239;SDS011;46102;39.012;-7.064;2023-04-29T07:51:55;1.23;;;1.10;;
60239;SDS011;46102;39.012;-7.064;2023-04-29T07:53:56;1.05;;;1.05;;
60239;SDS011;46102;39.012;-7.064;2023-04-29T07:55:57;1.35;;;1.17;;
60239;SDS011;46102;39.012;-7.064;2023-04-29T07:57:59;2.42;;;0.80;;
60239;SDS011;46102;39.012;-7.064;2023-04-29T08:00:00;1.42;;;1.35;;
60239;SDS011;46102;39.012;-7.064;2023-04-29T08:02:01;2.83;;;1.25;;
60239;SDS011;46102;39.012;-7.064;2023-04-29T08:04:01;1.80;;;1.70;;
60239;SDS011;46102;39.012;-7.064;2023-04-29T08:06:03;2.58;;;2.38;;
60239;SDS011;46102;39.012;-7.064;2023-04-29T08:08:04;4.18;;;3.78;;
60239;SDS011;46102;39.012;-7.064;2023-04-29T08:10:05;3.42;;;3.13;;
60239;SDS011;46102;39.012;-7.064;2023-04-29T08:12:06;2.83;;;2.63;;
60239;SDS011;46102;39.012;-7.064;2023-04-29T08:14:07;2.35;;;2.17;;
60239;SDS011;46102;39.012;-7.064;2023-04-29T08:16:08;2.53;;;2.33;;
60239;SDS011;46102;39.012;-7.064;2023-04-29T08:18:10;2.65;;;2.45;;
60239;SDS011;46102;39.012;-7.064;2023-04-29T08:20:11;1.85;;;1.75;;
60239;SDS011;46102;39.012;-7.064;2023-04-29T08:22:12;4.93;;;2.20;;
60239;SDS011;46102;39.012;-7.064;2023-04-29T08:24:13;2.38;;;2.00;;
60239;SDS011;46102;39.012;-7.064;2023-04-29T08:26:15;3.25;;;1.90;;
60239;SDS011;46102;39.012;-7.064;2023-04-29T08:28:16;1.20;;;1.20;;
60239;SDS011;46102;39.012;-7.064;2023-04-29T08:30:17;1.25;;;1.17;;
60239;SDS011;46102;39.012;-7.064;2023-04-29T08:32:18;2.70;;;1.10;;
60239;SDS011;46102;39.012;-7.064;2023-04-29T08:34:19;0.82;;;0.73;;
60239;SDS011;46102;39.012;-7.064;2023-04-29T08:36:20;0.50;;;0.50;;
60239;SDS011;46102;39.012;-7.064;2023-04-29T08:38:20;0.77;;;0.60;;
60239;SDS011;46102;39.012;-7.064;2023-04-29T08:40:21;8.13;;;0.88;;
60239;SDS011;46102;39.012;-7.064;2023-04-29T08:42:31;5.15;;;0.80;;
60239;SDS011;46102;39.012;-7.064;2023-04-29T08:44:36;0.50;;;0.50;;
60239;SDS011;46102;39.012;-7.064;2023-04-29T08:46:37;0.50;;;0.50;;
60239;SDS011;46102;39.012;-7.064;2023-04-29T08:48:39;0.40;;;0.40;;
60239;SDS011;46102;39.012;-7.064;2023-04-29T08:50:40;0.93;;;0.38;;
60239;SDS011;46102;39.012;-7.064;2023-04-29T08:52:41;0.50;;;0.50;;
60239;SDS011;46102;39.012;-7.064;2023-04-29T08:54:42;0.80;;;0.43;;
60239;SDS011;46102;39.012;-7.064;2023-04-29T08:56:44;0.40;;;0.40;;
60239;SDS011;46102;39.012;-7.064;2023-04-29T08:58:46;1.75;;;0.40;;
60239;SDS011;46102;39.012;-7.064;2023-04-29T09:00:53;0.38;;;0.38;;
60239;SDS011;46102;39.012;-7.064;2023-04-29T09:02:54;0.52;;;0.35;;
60239;SDS011;46102;39.012;-7.064;2023-04-29T09:05:03;1.30;;;0.57;;
60239;SDS011;46102;39.012;-7.064;2023-04-29T09:07:08;0.30;;;0.30;;
60239;SDS011;46102;39.012;-7.064;2023-04-29T09:09:11;0.28;;;0.28;;
60239;SDS011;46102;39.012;-7.064;2023-04-29T09:11:14;0.45;;;0.38;;
60239;SDS011;46102;39.012;-7.064;2023-04-29T09:13:28;0.60;;;0.60;;
60239;SDS011;46102;39.012;-7.064;2023-04-29T09:15:34;0.50;;;0.50;;
60239;SDS011;46102;39.012;-7.064;2023-04-29T09:19:47;1.65;;;1.00;;
60239;SDS011;46102;39.012;-7.064;2023-04-29T09:21:52;0.95;;;0.50;;
60239;SDS011;46102;39.012;-7.064;2023-04-29T09:23:56;0.50;;;0.40;;
60239;SDS011;46102;39.012;-7.064;2023-04-29T09:25:57;1.42;;;0.75;;
60239;SDS011;46102;39.012;-7.064;2023-04-29T09:27:58;2.05;;;1.55;;
60239;SDS011;46102;39.012;-7.064;2023-04-29T09:30:15;4.63;;;2.53;;
60239;SDS011;46102;39.012;-7.064;2023-04-29T09:32:17;1.40;;;1.30;;
60239;SDS011;46102;39.012;-7.064;2023-04-29T09:34:35;4.28;;;3.97;;
60239;SDS011;46102;39.012;-7.064;2023-04-29T09:36:42;2.15;;;2.05;;
60239;SDS011;46102;39.012;-7.064;2023-04-29T09:38:52;3.08;;;1.10;;
60239;SDS011;46102;39.012;-7.064;2023-04-29T09:40:54;1.10;;;1.10;;
60239;SDS011;46102;39.012;-7.064;2023-04-29T09:42:55;3.17;;;0.75;;
60239;SDS011;46102;39.012;-7.064;2023-04-29T09:44:56;4.05;;;1.00;;
60239;SDS011;46102;39.012;-7.064;2023-04-29T09:46:58;1.30;;;1.20;;
60239;SDS011;46102;39.012;-7.064;2023-04-29T09:49:02;1.20;;;1.10;;
60239;SDS011;46102;39.012;-7.064;2023-04-29T09:51:06;1.40;;;1.30;;
60239;SDS011;46102;39.012;-7.064;2023-04-29T09:53:07;3.42;;;1.33;;
60239;SDS011;46102;39.012;-7.064;2023-04-29T09:55:10;0.90;;;0.90;;
60239;SDS011;46102;39.012;-7.064;2023-04-29T09:57:12;0.35;;;0.35;;
60239;SDS011;46102;39.012;-7.064;2023-04-29T09:59:15;0.73;;;0.73;;
60239;SDS011;46102;39.012;-7.064;2023-04-29T10:01:16;0.75;;;0.75;;
60239;SDS011;46102;39.012;-7.064;2023-04-29T10:03:20;3.13;;;0.45;;
60239;SDS011;46102;39.012;-7.064;2023-04-29T10:05:22;2.28;;;0.50;;
60239;SDS011;46102;39.012;-7.064;2023-04-29T10:07:26;1.08;;;0.73;;
60239;SDS011;46102;39.012;-7.064;2023-04-29T10:09:28;1.73;;;0.80;;
60239;SDS011;46102;39.012;-7.064;2023-04-29T10:11:30;0.30;;;0.30;;
60239;SDS011;46102;39.012;-7.064;2023-04-29T10:13:33;3.75;;;0.50;;
60239;SDS011;46102;39.012;-7.064;2023-04-29T10:15:36;0.55;;;0.30;;
60239;SDS011;46102;39.012;-7.064;2023-04-29T10:17:45;1.27;;;0.30;;
60239;SDS011;46102;39.012;-7.064;2023-04-29T10:19:56;0.32;;;0.30;;
60239;SDS011;46102;39.012;-7.064;2023-04-29T10:22:05;1.05;;;0.40;;
60239;SDS011;46102;39.012;-7.064;2023-04-29T10:24:08;0.52;;;0.38;;
60239;SDS011;46102;39.012;-7.064;2023-04-29T10:26:11;0.40;;;0.40;;
60239;SDS011;46102;39.012;-7.064;2023-04-29T10:28:14;0.53;;;0.50;;
60239;SDS011;46102;39.012;-7.064;2023-04-29T10:30:16;0.47;;;0.47;;
60239;SDS011;46102;39.012;-7.064;2023-04-29T10:32:17;5.35;;;0.60;;
60239;SDS011;46102;39.012;-7.064;2023-04-29T10:34:21;0.43;;;0.43;;
60239;SDS011;46102;39.012;-7.064;2023-04-29T10:36:27;1.10;;;0.43;;
60239;SDS011;46102;39.012;-7.064;2023-04-29T10:40:35;1.98;;;0.50;;
60239;SDS011;46102;39.012;-7.064;2023-04-29T10:42:50;2.05;;;0.85;;
60239;SDS011;46102;39.012;-7.064;2023-04-29T10:47:23;1.58;;;0.82;;
60239;SDS011;46102;39.012;-7.064;2023-04-29T10:49:24;0.73;;;0.60;;
60239;SDS011;46102;39.012;-7.064;2023-04-29T10:51:34;0.98;;;0.70;;
60239;SDS011;46102;39.012;-7.064;2023-04-29T10:53:57;0.57;;;0.57;;
60239;SDS011;46102;39.012;-7.064;2023-04-29T10:56:06;0.47;;;0.47;;
60239;SDS011;46102;39.012;-7.064;2023-04-29T10:58:32;2.67;;;0.68;;
60239;SDS011;46102;39.012;-7.064;2023-04-29T11:00:37;0.65;;;0.65;;
60239;SDS011;46102;39.012;-7.064;2023-04-29T11:02:38;0.43;;;0.43;;
60239;SDS011;46102;39.012;-7.064;2023-04-29T11:07:10;0.40;;;0.40;;
60239;SDS011;46102;39.012;-7.064;2023-04-29T11:09:28;0.50;;;0.50;;
60239;SDS011;46102;39.012;-7.064;2023-04-29T11:13:45;0.30;;;0.30;;
60239;SDS011;46102;39.012;-7.064;2023-04-29T11:15:47;0.80;;;0.35;;
60239;SDS011;46102;39.012;-7.064;2023-04-29T11:17:48;0.95;;;0.57;;
60239;SDS011;46102;39.012;-7.064;2023-04-29T11:19:49;0.80;;;0.60;;
60239;SDS011;46102;39.012;-7.064;2023-04-29T11:22:02;2.47;;;1.25;;
60239;SDS011;46102;39.012;-7.064;2023-04-29T11:24:07;0.28;;;0.28;;
60239;SDS011;46102;39.012;-7.064;2023-04-29T11:26:08;0.68;;;0.68;;
60239;SDS011;46102;39.012;-7.064;2023-04-29T11:28:09;0.63;;;0.63;;
60239;SDS011;46102;39.012;-7.064;2023-04-29T11:30:09;0.77;;;0.60;;
60239;SDS011;46102;39.012;-7.064;2023-04-29T11:32:10;0.40;;;0.40;;
60239;SDS011;46102;39.012;-7.064;2023-04-29T11:34:11;0.80;;;0.80;;
60239;SDS011;46102;39.012;-7.064;2023-04-29T11:36:12;1.42;;;0.50;;
60239;SDS011;46102;39.012;-7.064;2023-04-29T11:38:13;0.50;;;0.50;;
60239;SDS011;46102;39.012;-7.064;2023-04-29T11:40:14;0.80;;;0.80;;
60239;SDS011;46102;39.012;-7.064;2023-04-29T11:42:19;0.70;;;0.65;;
60239;SDS011;46102;39.012;-7.064;2023-04-29T11:44:21;0.20;;;0.20;;
60239;SDS011;46102;39.012;-7.064;2023-04-29T11:46:22;0.20;;;0.20;;
60239;SDS011;46102;39.012;-7.064;2023-04-29T11:48:23;0.40;;;0.40;;
60239;SDS011;46102;39.012;-7.064;2023-04-29T11:50:25;0.40;;;0.40;;
60239;SDS011;46102;39.012;-7.064;2023-04-29T11:52:26;0.35;;;0.35;;
60239;SDS011;46102;39.012;-7.064;2023-04-29T11:54:28;0.30;;;0.30;;
60239;SDS011;46102;39.012;-7.064;2023-04-29T11:56:29;9.60;;;0.40;;
60239;SDS011;46102;39.012;-7.064;2023-04-29T11:58:30;0.47;;;0.47;;
60239;SDS011;46102;39.012;-7.064;2023-04-29T12:00:31;3.80;;;0.60;;
60239;SDS011;46102;39.012;-7.064;2023-04-29T12:02:32;3.33;;;0.80;;
60239;SDS011;46102;39.012;-7.064;2023-04-29T12:04:33;0.57;;;0.57;;
60239;SDS011;46102;39.012;-7.064;2023-04-29T12:06:45;1.10;;;0.65;;
60239;SDS011;46102;39.012;-7.064;2023-04-29T12:08:46;0.85;;;0.30;;
60239;SDS011;46102;39.012;-7.064;2023-04-29T12:10:47;0.43;;;0.30;;
60239;SDS011;46102;39.012;-7.064;2023-04-29T12:12:48;1.67;;;1.10;;
60239;SDS011;46102;39.012;-7.064;2023-04-29T12:14:49;0.57;;;0.57;;
60239;SDS011;46102;39.012;-7.064;2023-04-29T12:16:50;1.52;;;0.40;;
60239;SDS011;46102;39.012;-7.064;2023-04-29T12:18:53;1.00;;;0.47;;
60239;SDS011;46102;39.012;-7.064;2023-04-29T12:20:54;0.40;;;0.40;;
60239;SDS011;46102;39.012;-7.064;2023-04-29T12:22:56;0.50;;;0.50;;
60239;SDS011;46102;39.012;-7.064;2023-04-29T12:25:09;1.15;;;0.32;;
60239;SDS011;46102;39.012;-7.064;2023-04-29T12:27:11;0.32;;;0.32;;
60239;SDS011;46102;39.012;-7.064;2023-04-29T12:29:12;2.92;;;0.40;;
60239;SDS011;46102;39.012;-7.064;2023-04-29T12:31:16;0.93;;;0.30;;